Safety First — WDI4825 — position and weather

sailwx.info

Track history (hours):
 
Tides and Currents Weather Stations Pressure Air Temp Water Temp Dewpoint Dewpoint Depression Visibility Wind Speed Wind Dir Waves Ship Positions

Safety First

Owner: American Commercial Barge Line LLC, Jeffersonville, IN. More information available from US FCC via Universal Licensing System and Coast Guard Vessel Documentation Center.

Last reported at 2018-Jun-17 15:51 UTC. Time now 2018-Jun-19 10:33 UTC.
Position N 29°33' W 090°24'.

Length 23 m; draft 3 m.

Type: Towing. MMSI: 367702400.

Date/timePositionNaut miles runAvg speedWind from/ knotsBaromVisibWave heightAir tempDewpointWater temp
2018-Jun-17 15:51N 29°33' W 090°24'3 7.2
2018-Jun-17 15:28N 29°33' W 090°27'3 7.3
2018-Jun-17 15:00N 29°34' W 090°31'3 7.0
2018-Jun-17 14:30N 29°34' W 090°35'3 6.5
2018-Jun-17 14:00N 29°35' W 090°38'3 6.8
2018-Jun-17 13:30N 29°37' W 090°42'3 5.9
2018-Jun-17 13:00N 29°34' W 090°43'3 6.2
2018-Jun-17 12:30N 29°32' W 090°46'4 7.9
2018-Jun-17 11:57N 29°32' W 090°51'58 5.1
2018-Jun-17 00:29N 29°51' W 091°54'3 6.6
2018-Jun-16 23:59N 29°50' W 091°58'2 4.3
2018-Jun-16 23:30N 29°50' W 092°00'2 3.9
2018-Jun-16 23:00N 29°49' W 092°02'3 6.5
2018-Jun-16 22:30N 29°48' W 092°06'3 6.5
2018-Jun-16 21:59N 29°47' W 092°10'2 4.9
2018-Jun-16 21:30N 29°47' W 092°12'1 1.3
2018-Jun-16 21:00N 29°47' W 092°13'1 1.3
2018-Jun-16 20:30N 29°48' W 092°14'2 3.4
2018-Jun-16 20:00N 29°48' W 092°16'3 5.8
2018-Jun-16 19:30N 29°50' W 092°18'3 6.0
2018-Jun-16 19:00N 29°51' W 092°22'40 5.0
2018-Jun-16 10:58N 29°56' W 093°07'2 4.4
2018-Jun-16 10:30N 29°56' W 093°09'2 4.3
2018-Jun-16 10:00N 29°58' W 093°11'2 4.3
2018-Jun-16 09:30N 29°59' W 093°13'2 4.3
2018-Jun-16 09:01N 30°01' W 093°14'2 3.8
2018-Jun-16 08:30N 30°02' W 093°16'2 3.4
2018-Jun-16 08:00N 30°04' W 093°16'2 3.6
2018-Jun-16 07:31N 30°05' W 093°18'0 0.5
2018-Jun-16 07:00N 30°05' W 093°18'1 1.2
2018-Jun-16 06:30N 30°06' W 093°18'1 1.4
2018-Jun-16 06:00N 30°06' W 093°19'0 0.0
2018-Jun-16 05:30N 30°06' W 093°19'0 0.0
2018-Jun-16 05:00N 30°06' W 093°19'0 0.0
2018-Jun-16 04:30N 30°06' W 093°19'0 0.0
2018-Jun-16 04:00N 30°06' W 093°19'0 0.0
2018-Jun-16 03:29N 30°06' W 093°19'0 0.0
2018-Jun-16 03:00N 30°06' W 093°19'0 0.0
2018-Jun-16 02:30N 30°06' W 093°19'0 0.0
2018-Jun-16 02:00N 30°06' W 093°19'0 0.0
2018-Jun-16 01:30N 30°06' W 093°19'0 0.0
2018-Jun-16 01:01N 30°06' W 093°19'0 0.0
2018-Jun-16 00:31N 30°06' W 093°19'0 0.0
2018-Jun-16 00:00N 30°06' W 093°19'0 0.0
2018-Jun-15 23:30N 30°06' W 093°19'0 0.0
2018-Jun-15 23:00N 30°06' W 093°19'0 0.0
2018-Jun-15 22:30N 30°06' W 093°19'0 0.0
2018-Jun-15 22:01N 30°06' W 093°19'0 0.0
2018-Jun-15 21:31N 30°06' W 093°19'0 0.0
2018-Jun-15 21:00N 30°06' W 093°19'0 0.0
2018-Jun-15 20:30N 30°06' W 093°19'1 1.1
2018-Jun-15 20:00N 30°06' W 093°19'3 5.3
2018-Jun-15 19:31N 30°04' W 093°21'0 0.6
2018-Jun-15 19:00N 30°04' W 093°22'0 0.5
2018-Jun-15 18:30N 30°04' W 093°21'0 0.0
2018-Jun-15 18:00N 30°04' W 093°21'0 0.0
2018-Jun-15 17:30N 30°04' W 093°21'0 0.0
2018-Jun-15 17:00N 30°04' W 093°21'1 1.3
2018-Jun-15 16:30N 30°04' W 093°22'0 0.7
2018-Jun-15 16:01N 30°04' W 093°22'3 6.9
2018-Jun-15 15:30N 30°04' W 093°26'4 7.5
2018-Jun-15 15:00N 30°04' W 093°31'6 7.8
2018-Jun-15 14:15N 30°04' W 093°38'2 8.6
2018-Jun-15 13:58N 30°04' W 093°40'4 7.9
2018-Jun-15 13:30N 30°02' W 093°44'4 8.4
2018-Jun-15 13:00N 29°59' W 093°48'4 8.3
2018-Jun-15 12:29N 29°57' W 093°52'510.3
2018-Jun-15 12:00N 29°53' W 093°55'4 7.2
2018-Jun-15 11:30N 29°50' W 093°58'1 1.6
2018-Jun-15 11:00N 29°51' W 093°58'0 0.0
2018-Jun-15 10:31N 29°51' W 093°58'0 0.0
2018-Jun-15 10:00N 29°51' W 093°58'0 0.0
2018-Jun-15 09:31N 29°51' W 093°58'0 0.0
2018-Jun-15 09:00N 29°51' W 093°58'0 0.0
2018-Jun-15 08:30N 29°51' W 093°58'0 0.0
2018-Jun-15 08:00N 29°51' W 093°58'0 0.0
2018-Jun-15 07:30N 29°51' W 093°58'0 0.0
2018-Jun-15 07:00N 29°51' W 093°58'0 0.0
2018-Jun-15 06:30N 29°51' W 093°58'0 0.0
2018-Jun-15 06:00N 29°51' W 093°58'0 0.0
2018-Jun-15 05:30N 29°51' W 093°58'0 0.0
2018-Jun-15 05:00N 29°51' W 093°58'0 0.0
2018-Jun-15 04:30N 29°51' W 093°58'0 0.0
2018-Jun-15 04:00N 29°51' W 093°58'0 0.0
2018-Jun-15 03:30N 29°51' W 093°58'0 0.0
2018-Jun-15 03:00N 29°51' W 093°58'0 0.0
2018-Jun-15 02:30N 29°51' W 093°58'0 0.0
2018-Jun-15 02:01N 29°51' W 093°58'0 0.0
2018-Jun-15 01:30N 29°51' W 093°58'0 0.0
2018-Jun-15 01:00N 29°51' W 093°58'0 0.0
2018-Jun-15 00:30N 29°51' W 093°58'0 0.0
2018-Jun-15 00:01N 29°51' W 093°58'0 0.0
2018-Jun-14 23:30N 29°51' W 093°58'0 0.0
2018-Jun-14 23:00N 29°51' W 093°58'0 0.0
2018-Jun-14 22:30N 29°51' W 093°58'0 0.0
2018-Jun-14 22:00N 29°51' W 093°58'0 0.0
2018-Jun-14 21:30N 29°51' W 093°58'0 0.0
2018-Jun-14 21:00N 29°51' W 093°58'0 0.0
2018-Jun-14 20:30N 29°51' W 093°58'0 0.0
2018-Jun-14 20:00N 29°51' W 093°58'0 0.0
2018-Jun-14 19:30N 29°51' W 093°58'0 0.0
2018-Jun-14 19:00N 29°51' W 093°58'0 0.0
2018-Jun-14 18:30N 29°51' W 093°58'0 0.0
2018-Jun-14 18:00N 29°51' W 093°58'0 0.0
2018-Jun-14 17:30N 29°51' W 093°58'0 0.0
2018-Jun-14 17:00N 29°51' W 093°58'0 0.0
2018-Jun-14 16:30N 29°51' W 093°58'0 0.5
2018-Jun-14 16:01N 29°50' W 093°58'1 1.7
2018-Jun-14 15:30N 29°51' W 093°57'3 5.8
2018-Jun-14 15:00N 29°53' W 093°55'3 5.8
2018-Jun-14 14:30N 29°55' W 093°53'3 5.6
2018-Jun-14 14:00N 29°58' W 093°51'2 4.8
2018-Jun-14 13:30N 29°59' W 093°49'3 6.0
2018-Jun-14 13:00N 30°00' W 093°46'3 5.7
2018-Jun-14 12:30N 30°03' W 093°44'3 5.0
2018-Jun-14 11:58N 30°04' W 093°41'2 5.0
2018-Jun-14 11:30N 30°04' W 093°38'3 4.6
2018-Jun-14 10:47N 30°04' W 093°35'1 1.8
2018-Jun-14 10:29N 30°04' W 093°34'2 4.2
2018-Jun-14 09:59N 30°04' W 093°31'2 4.7
2018-Jun-14 09:31N 30°04' W 093°29'2 4.6
2018-Jun-14 08:59N 30°04' W 093°26'2 4.7
2018-Jun-14 08:30N 30°04' W 093°24'2 3.8
2018-Jun-14 08:00N 30°04' W 093°21'2 3.4
2018-Jun-14 07:30N 30°05' W 093°20'2 3.7
2018-Jun-14 07:00N 30°06' W 093°18'1 2.6
2018-Jun-14 06:30N 30°05' W 093°17'1 1.8
2018-Jun-14 06:01N 30°05' W 093°17'1 1.4
2018-Jun-14 05:30N 30°04' W 093°16'0 0.1
2018-Jun-14 05:00N 30°04' W 093°16'0 0.0
2018-Jun-14 04:30N 30°04' W 093°16'0 0.0
2018-Jun-14 04:00N 30°04' W 093°16'0 0.0
2018-Jun-14 03:30N 30°04' W 093°16'0 0.0
2018-Jun-14 02:59N 30°04' W 093°16'0 0.0
2018-Jun-14 02:30N 30°04' W 093°16'0 0.0
2018-Jun-14 02:00N 30°04' W 093°16'0 0.0
2018-Jun-14 01:30N 30°04' W 093°16'0 0.0
2018-Jun-14 01:00N 30°04' W 093°16'0 0.0
2018-Jun-14 00:31N 30°04' W 093°16'1 1.4
2018-Jun-14 00:00N 30°03' W 093°16'1 2.3
2018-Jun-13 23:30N 30°02' W 093°15'2 4.2
2018-Jun-13 23:00N 30°01' W 093°14'2 4.0
2018-Jun-13 22:30N 29°59' W 093°12'0 0.2
2018-Jun-13 22:00N 29°59' W 093°12'0 0.0
2018-Jun-13 21:25N 29°59' W 093°12'0 0.0
2018-Jun-13 20:59N 29°59' W 093°12'0 0.0
2018-Jun-13 20:29N 29°59' W 093°12'0 0.0
2018-Jun-13 20:00N 29°59' W 093°12'0 0.0
2018-Jun-13 19:31N 29°59' W 093°12'0 0.0
2018-Jun-13 19:01N 29°59' W 093°12'0 0.0
2018-Jun-13 18:31N 29°59' W 093°12'0 0.0
2018-Jun-13 17:59N 29°59' W 093°12'0 0.0
2018-Jun-13 17:30N 29°59' W 093°12'0 0.0
2018-Jun-13 17:00N 29°59' W 093°12'0 0.0
2018-Jun-13 16:27N 29°59' W 093°12'0 0.0
2018-Jun-13 16:01N 29°59' W 093°12'0 0.0
2018-Jun-13 15:30N 29°59' W 093°12'0 0.0
2018-Jun-13 14:59N 29°59' W 093°12'0 0.0
2018-Jun-13 14:30N 29°59' W 093°12'0 0.0
2018-Jun-13 14:01N 29°59' W 093°12'1 1.0
2018-Jun-13 13:30N 29°59' W 093°12'2 3.3
2018-Jun-13 13:00N 29°57' W 093°11'0 0.6
2018-Jun-13 12:31N 29°57' W 093°10'0 0.7
2018-Jun-13 12:00N 29°57' W 093°10'0 0.1
2018-Jun-13 11:30N 29°57' W 093°10'1 2.2
2018-Jun-13 11:00N 29°56' W 093°09'2 4.2
2018-Jun-13 10:30N 29°56' W 093°07'1 2.8
2018-Jun-13 10:00N 29°56' W 093°05'1 1.2
2018-Jun-13 09:29N 29°56' W 093°05'35 4.1
2018-Jun-13 01:05N 29°53' W 092°25'1 4.5
2018-Jun-13 00:56N 29°53' W 092°24'3 3.9
2018-Jun-13 00:14N 29°51' W 092°22'1 4.5
2018-Jun-13 00:00N 29°51' W 092°21'2 4.6
2018-Jun-12 23:30N 29°50' W 092°18'2 4.5
2018-Jun-12 23:00N 29°49' W 092°16'2 4.8
2018-Jun-12 22:30N 29°48' W 092°14'1 2.5
2018-Jun-12 22:01N 29°47' W 092°12'1 1.9
2018-Jun-12 21:30N 29°47' W 092°11'0 0.0
2018-Jun-12 21:00N 29°47' W 092°11'0 0.9
2018-Jun-12 20:30N 29°47' W 092°11'0 0.1
2018-Jun-12 20:00N 29°47' W 092°11'2 4.7
2018-Jun-12 19:30N 29°47' W 092°08'3 5.2
2018-Jun-12 19:00N 29°48' W 092°05'3 5.0
2018-Jun-12 18:30N 29°49' W 092°03'2 4.2
2018-Jun-12 18:00N 29°50' W 092°00'3 5.0
2018-Jun-12 17:29N 29°50' W 091°57'53 4.1
2018-Jun-12 04:29N 29°36' W 090°58'3 4.8
2018-Jun-12 03:57N 29°34' W 090°56'2 5.2
2018-Jun-12 03:29N 29°33' W 090°54'3 4.9
2018-Jun-12 02:50N 29°32' W 090°50'2 5.0
2018-Jun-12 02:30N 29°32' W 090°48'2 4.7
2018-Jun-12 02:01N 29°32' W 090°46'2 3.7
2018-Jun-12 01:30N 29°34' W 090°44'2 4.0
2018-Jun-12 01:00N 29°35' W 090°43'2 2.6
2018-Jun-12 00:25N 29°37' W 090°42'0 0.0
2018-Jun-11 23:59N 29°37' W 090°42'1 2.8
2018-Jun-11 23:30N 29°36' W 090°41'2 4.6
2018-Jun-11 23:00N 29°35' W 090°38'2 4.5
2018-Jun-11 22:30N 29°35' W 090°36'2 3.9
2018-Jun-11 21:58N 29°34' W 090°34'2 4.6
2018-Jun-11 21:30N 29°34' W 090°31'2 4.8
2018-Jun-11 21:00N 29°34' W 090°29'5 3.8
2018-Jun-11 19:49N 29°34' W 090°23'  
Track history (hours):
 
Tides and Currents Weather Stations Pressure Air Temp Water Temp Dewpoint Dewpoint Depression Visibility Wind Speed Wind Dir Waves Ship Positions

Safety First

Owner: American Commercial Barge Line LLC, Jeffersonville, IN. More information available from US FCC via Universal Licensing System and Coast Guard Vessel Documentation Center.

Last reported at 2018-Jun-17 15:51 UTC. Time now 2018-Jun-19 10:33 UTC.
Position N 29°33' W 090°24'.

Length 23 m; draft 3 m.

Type: Towing. MMSI: 367702400.

Date/timePositionNaut miles runAvg speedWind from/ knotsBaromVisibWave heightAir tempDewpointWater temp
2018-Jun-17 15:51N 29°33' W 090°24'3 7.2
2018-Jun-17 15:28N 29°33' W 090°27'3 7.3
2018-Jun-17 15:00N 29°34' W 090°31'3 7.0
2018-Jun-17 14:30N 29°34' W 090°35'3 6.5
2018-Jun-17 14:00N 29°35' W 090°38'3 6.8
2018-Jun-17 13:30N 29°37' W 090°42'3 5.9
2018-Jun-17 13:00N 29°34' W 090°43'3 6.2
2018-Jun-17 12:30N 29°32' W 090°46'4 7.9
2018-Jun-17 11:57N 29°32' W 090°51'58 5.1
2018-Jun-17 00:29N 29°51' W 091°54'3 6.6
2018-Jun-16 23:59N 29°50' W 091°58'2 4.3
2018-Jun-16 23:30N 29°50' W 092°00'2 3.9
2018-Jun-16 23:00N 29°49' W 092°02'3 6.5
2018-Jun-16 22:30N 29°48' W 092°06'3 6.5
2018-Jun-16 21:59N 29°47' W 092°10'2 4.9
2018-Jun-16 21:30N 29°47' W 092°12'1 1.3
2018-Jun-16 21:00N 29°47' W 092°13'1 1.3
2018-Jun-16 20:30N 29°48' W 092°14'2 3.4
2018-Jun-16 20:00N 29°48' W 092°16'3 5.8
2018-Jun-16 19:30N 29°50' W 092°18'3 6.0
2018-Jun-16 19:00N 29°51' W 092°22'40 5.0
2018-Jun-16 10:58N 29°56' W 093°07'2 4.4
2018-Jun-16 10:30N 29°56' W 093°09'2 4.3
2018-Jun-16 10:00N 29°58' W 093°11'2 4.3
2018-Jun-16 09:30N 29°59' W 093°13'2 4.3
2018-Jun-16 09:01N 30°01' W 093°14'2 3.8
2018-Jun-16 08:30N 30°02' W 093°16'2 3.4
2018-Jun-16 08:00N 30°04' W 093°16'2 3.6
2018-Jun-16 07:31N 30°05' W 093°18'0 0.5
2018-Jun-16 07:00N 30°05' W 093°18'1 1.2
2018-Jun-16 06:30N 30°06' W 093°18'1 1.4
2018-Jun-16 06:00N 30°06' W 093°19'0 0.0
2018-Jun-16 05:30N 30°06' W 093°19'0 0.0
2018-Jun-16 05:00N 30°06' W 093°19'0 0.0
2018-Jun-16 04:30N 30°06' W 093°19'0 0.0
2018-Jun-16 04:00N 30°06' W 093°19'0 0.0
2018-Jun-16 03:29N 30°06' W 093°19'0 0.0
2018-Jun-16 03:00N 30°06' W 093°19'0 0.0
2018-Jun-16 02:30N 30°06' W 093°19'0 0.0
2018-Jun-16 02:00N 30°06' W 093°19'0 0.0
2018-Jun-16 01:30N 30°06' W 093°19'0 0.0
2018-Jun-16 01:01N 30°06' W 093°19'0 0.0
2018-Jun-16 00:31N 30°06' W 093°19'0 0.0
2018-Jun-16 00:00N 30°06' W 093°19'0 0.0
2018-Jun-15 23:30N 30°06' W 093°19'0 0.0
2018-Jun-15 23:00N 30°06' W 093°19'0 0.0
2018-Jun-15 22:30N 30°06' W 093°19'0 0.0
2018-Jun-15 22:01N 30°06' W 093°19'0 0.0
2018-Jun-15 21:31N 30°06' W 093°19'0 0.0
2018-Jun-15 21:00N 30°06' W 093°19'0 0.0
2018-Jun-15 20:30N 30°06' W 093°19'1 1.1
2018-Jun-15 20:00N 30°06' W 093°19'3 5.3
2018-Jun-15 19:31N 30°04' W 093°21'0 0.6
2018-Jun-15 19:00N 30°04' W 093°22'0 0.5
2018-Jun-15 18:30N 30°04' W 093°21'0 0.0
2018-Jun-15 18:00N 30°04' W 093°21'0 0.0
2018-Jun-15 17:30N 30°04' W 093°21'0 0.0
2018-Jun-15 17:00N 30°04' W 093°21'1 1.3
2018-Jun-15 16:30N 30°04' W 093°22'0 0.7
2018-Jun-15 16:01N 30°04' W 093°22'3 6.9
2018-Jun-15 15:30N 30°04' W 093°26'4 7.5
2018-Jun-15 15:00N 30°04' W 093°31'6 7.8
2018-Jun-15 14:15N 30°04' W 093°38'2 8.6
2018-Jun-15 13:58N 30°04' W 093°40'4 7.9
2018-Jun-15 13:30N 30°02' W 093°44'4 8.4
2018-Jun-15 13:00N 29°59' W 093°48'4 8.3
2018-Jun-15 12:29N 29°57' W 093°52'510.3
2018-Jun-15 12:00N 29°53' W 093°55'4 7.2
2018-Jun-15 11:30N 29°50' W 093°58'1 1.6
2018-Jun-15 11:00N 29°51' W 093°58'0 0.0
2018-Jun-15 10:31N 29°51' W 093°58'0 0.0
2018-Jun-15 10:00N 29°51' W 093°58'0 0.0
2018-Jun-15 09:31N 29°51' W 093°58'0 0.0
2018-Jun-15 09:00N 29°51' W 093°58'0 0.0
2018-Jun-15 08:30N 29°51' W 093°58'0 0.0
2018-Jun-15 08:00N 29°51' W 093°58'0 0.0
2018-Jun-15 07:30N 29°51' W 093°58'0 0.0
2018-Jun-15 07:00N 29°51' W 093°58'0 0.0
2018-Jun-15 06:30N 29°51' W 093°58'0 0.0
2018-Jun-15 06:00N 29°51' W 093°58'0 0.0
2018-Jun-15 05:30N 29°51' W 093°58'0 0.0
2018-Jun-15 05:00N 29°51' W 093°58'0 0.0
2018-Jun-15 04:30N 29°51' W 093°58'0 0.0
2018-Jun-15 04:00N 29°51' W 093°58'0 0.0
2018-Jun-15 03:30N 29°51' W 093°58'0 0.0
2018-Jun-15 03:00N 29°51' W 093°58'0 0.0
2018-Jun-15 02:30N 29°51' W 093°58'0 0.0
2018-Jun-15 02:01N 29°51' W 093°58'0 0.0
2018-Jun-15 01:30N 29°51' W 093°58'0 0.0
2018-Jun-15 01:00N 29°51' W 093°58'0 0.0
2018-Jun-15 00:30N 29°51' W 093°58'0 0.0
2018-Jun-15 00:01N 29°51' W 093°58'0 0.0
2018-Jun-14 23:30N 29°51' W 093°58'0 0.0
2018-Jun-14 23:00N 29°51' W 093°58'0 0.0
2018-Jun-14 22:30N 29°51' W 093°58'0 0.0
2018-Jun-14 22:00N 29°51' W 093°58'0 0.0
2018-Jun-14 21:30N 29°51' W 093°58'0 0.0
2018-Jun-14 21:00N 29°51' W 093°58'0 0.0
2018-Jun-14 20:30N 29°51' W 093°58'0 0.0
2018-Jun-14 20:00N 29°51' W 093°58'0 0.0
2018-Jun-14 19:30N 29°51' W 093°58'0 0.0
2018-Jun-14 19:00N 29°51' W 093°58'0 0.0
2018-Jun-14 18:30N 29°51' W 093°58'0 0.0
2018-Jun-14 18:00N 29°51' W 093°58'0 0.0
2018-Jun-14 17:30N 29°51' W 093°58'0 0.0
2018-Jun-14 17:00N 29°51' W 093°58'0 0.0
2018-Jun-14 16:30N 29°51' W 093°58'0 0.5
2018-Jun-14 16:01N 29°50' W 093°58'1 1.7
2018-Jun-14 15:30N 29°51' W 093°57'3 5.8
2018-Jun-14 15:00N 29°53' W 093°55'3 5.8
2018-Jun-14 14:30N 29°55' W 093°53'3 5.6
2018-Jun-14 14:00N 29°58' W 093°51'2 4.8
2018-Jun-14 13:30N 29°59' W 093°49'3 6.0
2018-Jun-14 13:00N 30°00' W 093°46'3 5.7
2018-Jun-14 12:30N 30°03' W 093°44'3 5.0
2018-Jun-14 11:58N 30°04' W 093°41'2 5.0
2018-Jun-14 11:30N 30°04' W 093°38'3 4.6
2018-Jun-14 10:47N 30°04' W 093°35'1 1.8
2018-Jun-14 10:29N 30°04' W 093°34'2 4.2
2018-Jun-14 09:59N 30°04' W 093°31'2 4.7
2018-Jun-14 09:31N 30°04' W 093°29'2 4.6
2018-Jun-14 08:59N 30°04' W 093°26'2 4.7
2018-Jun-14 08:30N 30°04' W 093°24'2 3.8
2018-Jun-14 08:00N 30°04' W 093°21'2 3.4
2018-Jun-14 07:30N 30°05' W 093°20'2 3.7
2018-Jun-14 07:00N 30°06' W 093°18'1 2.6
2018-Jun-14 06:30N 30°05' W 093°17'1 1.8
2018-Jun-14 06:01N 30°05' W 093°17'1 1.4
2018-Jun-14 05:30N 30°04' W 093°16'0 0.1
2018-Jun-14 05:00N 30°04' W 093°16'0 0.0
2018-Jun-14 04:30N 30°04' W 093°16'0 0.0
2018-Jun-14 04:00N 30°04' W 093°16'0 0.0
2018-Jun-14 03:30N 30°04' W 093°16'0 0.0
2018-Jun-14 02:59N 30°04' W 093°16'0 0.0
2018-Jun-14 02:30N 30°04' W 093°16'0 0.0
2018-Jun-14 02:00N 30°04' W 093°16'0 0.0
2018-Jun-14 01:30N 30°04' W 093°16'0 0.0
2018-Jun-14 01:00N 30°04' W 093°16'0 0.0
2018-Jun-14 00:31N 30°04' W 093°16'1 1.4
2018-Jun-14 00:00N 30°03' W 093°16'1 2.3
2018-Jun-13 23:30N 30°02' W 093°15'2 4.2
2018-Jun-13 23:00N 30°01' W 093°14'2 4.0
2018-Jun-13 22:30N 29°59' W 093°12'0 0.2
2018-Jun-13 22:00N 29°59' W 093°12'0 0.0
2018-Jun-13 21:25N 29°59' W 093°12'0 0.0
2018-Jun-13 20:59N 29°59' W 093°12'0 0.0
2018-Jun-13 20:29N 29°59' W 093°12'0 0.0
2018-Jun-13 20:00N 29°59' W 093°12'0 0.0
2018-Jun-13 19:31N 29°59' W 093°12'0 0.0
2018-Jun-13 19:01N 29°59' W 093°12'0 0.0
2018-Jun-13 18:31N 29°59' W 093°12'0 0.0
2018-Jun-13 17:59N 29°59' W 093°12'0 0.0
2018-Jun-13 17:30N 29°59' W 093°12'0 0.0
2018-Jun-13 17:00N 29°59' W 093°12'0 0.0
2018-Jun-13 16:27N 29°59' W 093°12'0 0.0
2018-Jun-13 16:01N 29°59' W 093°12'0 0.0
2018-Jun-13 15:30N 29°59' W 093°12'0 0.0
2018-Jun-13 14:59N 29°59' W 093°12'0 0.0
2018-Jun-13 14:30N 29°59' W 093°12'0 0.0
2018-Jun-13 14:01N 29°59' W 093°12'1 1.0
2018-Jun-13 13:30N 29°59' W 093°12'2 3.3
2018-Jun-13 13:00N 29°57' W 093°11'0 0.6
2018-Jun-13 12:31N 29°57' W 093°10'0 0.7
2018-Jun-13 12:00N 29°57' W 093°10'0 0.1
2018-Jun-13 11:30N 29°57' W 093°10'1 2.2
2018-Jun-13 11:00N 29°56' W 093°09'2 4.2
2018-Jun-13 10:30N 29°56' W 093°07'1 2.8
2018-Jun-13 10:00N 29°56' W 093°05'1 1.2
2018-Jun-13 09:29N 29°56' W 093°05'35 4.1
2018-Jun-13 01:05N 29°53' W 092°25'1 4.5
2018-Jun-13 00:56N 29°53' W 092°24'3 3.9
2018-Jun-13 00:14N 29°51' W 092°22'1 4.5
2018-Jun-13 00:00N 29°51' W 092°21'2 4.6
2018-Jun-12 23:30N 29°50' W 092°18'2 4.5
2018-Jun-12 23:00N 29°49' W 092°16'2 4.8
2018-Jun-12 22:30N 29°48' W 092°14'1 2.5
2018-Jun-12 22:01N 29°47' W 092°12'1 1.9
2018-Jun-12 21:30N 29°47' W 092°11'0 0.0
2018-Jun-12 21:00N 29°47' W 092°11'0 0.9
2018-Jun-12 20:30N 29°47' W 092°11'0 0.1
2018-Jun-12 20:00N 29°47' W 092°11'2 4.7
2018-Jun-12 19:30N 29°47' W 092°08'3 5.2
2018-Jun-12 19:00N 29°48' W 092°05'3 5.0
2018-Jun-12 18:30N 29°49' W 092°03'2 4.2
2018-Jun-12 18:00N 29°50' W 092°00'3 5.0
2018-Jun-12 17:29N 29°50' W 091°57'53 4.1
2018-Jun-12 04:29N 29°36' W 090°58'3 4.8
2018-Jun-12 03:57N 29°34' W 090°56'2 5.2
2018-Jun-12 03:29N 29°33' W 090°54'3 4.9
2018-Jun-12 02:50N 29°32' W 090°50'2 5.0
2018-Jun-12 02:30N 29°32' W 090°48'2 4.7
2018-Jun-12 02:01N 29°32' W 090°46'2 3.7
2018-Jun-12 01:30N 29°34' W 090°44'2 4.0
2018-Jun-12 01:00N 29°35' W 090°43'2 2.6
2018-Jun-12 00:25N 29°37' W 090°42'0 0.0
2018-Jun-11 23:59N 29°37' W 090°42'1 2.8
2018-Jun-11 23:30N 29°36' W 090°41'2 4.6
2018-Jun-11 23:00N 29°35' W 090°38'2 4.5
2018-Jun-11 22:30N 29°35' W 090°36'2 3.9
2018-Jun-11 21:58N 29°34' W 090°34'2 4.6
2018-Jun-11 21:30N 29°34' W 090°31'2 4.8
2018-Jun-11 21:00N 29°34' W 090°29'5 3.8
2018-Jun-11 19:49N 29°34' W 090°23'  

Dump ship's entire track history